sensor_id;sensor_type;location;lat;lon;timestamp;P1;durP1;ratioP1;P2;durP2;ratioP2
51852;SDS011;37894;53.172;6.598;2022-07-06T00:01:16;4.03;;;1.20;;
51852;SDS011;37894;53.172;6.598;2022-07-06T00:03:42;5.00;;;1.20;;
51852;SDS011;37894;53.172;6.598;2022-07-06T00:06:07;5.82;;;1.60;;
51852;SDS011;37894;53.172;6.598;2022-07-06T00:08:33;5.05;;;1.30;;
51852;SDS011;37894;53.172;6.598;2022-07-06T00:10:59;3.38;;;1.10;;
51852;SDS011;37894;53.172;6.598;2022-07-06T00:13:25;2.95;;;1.17;;
51852;SDS011;37894;53.172;6.598;2022-07-06T00:15:52;3.25;;;1.02;;
51852;SDS011;37894;53.172;6.598;2022-07-06T00:18:18;3.28;;;1.17;;
51852;SDS011;37894;53.172;6.598;2022-07-06T00:20:43;4.47;;;1.10;;
51852;SDS011;37894;53.172;6.598;2022-07-06T00:23:09;3.67;;;1.40;;
51852;SDS011;37894;53.172;6.598;2022-07-06T00:25:35;2.53;;;0.90;;
51852;SDS011;37894;53.172;6.598;2022-07-06T00:28:01;5.43;;;1.52;;
51852;SDS011;37894;53.172;6.598;2022-07-06T00:30:27;3.90;;;1.13;;
51852;SDS011;37894;53.172;6.598;2022-07-06T00:32:53;6.03;;;1.20;;
51852;SDS011;37894;53.172;6.598;2022-07-06T00:35:19;3.42;;;1.40;;
51852;SDS011;37894;53.172;6.598;2022-07-06T00:37:44;3.17;;;1.10;;
51852;SDS011;37894;53.172;6.598;2022-07-06T00:40:10;2.08;;;0.93;;
51852;SDS011;37894;53.172;6.598;2022-07-06T00:42:43;3.05;;;0.98;;
51852;SDS011;37894;53.172;6.598;2022-07-06T00:45:10;3.63;;;0.95;;
51852;SDS011;37894;53.172;6.598;2022-07-06T00:47:39;4.50;;;1.35;;
51852;SDS011;37894;53.172;6.598;2022-07-06T00:50:06;3.75;;;1.08;;
51852;SDS011;37894;53.172;6.598;2022-07-06T00:52:40;4.03;;;1.10;;
51852;SDS011;37894;53.172;6.598;2022-07-06T00:55:07;3.28;;;1.20;;
51852;SDS011;37894;53.172;6.598;2022-07-06T00:57:34;4.25;;;1.45;;
51852;SDS011;37894;53.172;6.598;2022-07-06T01:00:01;3.92;;;1.23;;
51852;SDS011;37894;53.172;6.598;2022-07-06T01:02:32;4.72;;;1.00;;
51852;SDS011;37894;53.172;6.598;2022-07-06T01:04:58;4.05;;;1.02;;
51852;SDS011;37894;53.172;6.598;2022-07-06T01:07:24;4.53;;;1.40;;
51852;SDS011;37894;53.172;6.598;2022-07-06T01:09:50;4.68;;;1.20;;
51852;SDS011;37894;53.172;6.598;2022-07-06T01:12:15;4.22;;;1.42;;
51852;SDS011;37894;53.172;6.598;2022-07-06T01:14:42;4.07;;;1.33;;
51852;SDS011;37894;53.172;6.598;2022-07-06T01:17:08;3.72;;;1.27;;
51852;SDS011;37894;53.172;6.598;2022-07-06T01:19:34;6.45;;;1.50;;
51852;SDS011;37894;53.172;6.598;2022-07-06T01:22:00;5.35;;;1.20;;
51852;SDS011;37894;53.172;6.598;2022-07-06T01:24:26;4.13;;;1.27;;
51852;SDS011;37894;53.172;6.598;2022-07-06T01:26:51;4.80;;;1.40;;
51852;SDS011;37894;53.172;6.598;2022-07-06T01:29:17;5.65;;;1.35;;
51852;SDS011;37894;53.172;6.598;2022-07-06T01:31:46;5.05;;;1.20;;
51852;SDS011;37894;53.172;6.598;2022-07-06T01:34:13;4.50;;;1.20;;
51852;SDS011;37894;53.172;6.598;2022-07-06T01:36:41;3.30;;;1.10;;
51852;SDS011;37894;53.172;6.598;2022-07-06T01:39:07;4.57;;;1.27;;
51852;SDS011;37894;53.172;6.598;2022-07-06T01:41:34;4.00;;;1.27;;
51852;SDS011;37894;53.172;6.598;2022-07-06T01:44:00;4.03;;;1.17;;
51852;SDS011;37894;53.172;6.598;2022-07-06T01:46:26;5.22;;;1.52;;
51852;SDS011;37894;53.172;6.598;2022-07-06T01:48:52;4.82;;;1.35;;
51852;SDS011;37894;53.172;6.598;2022-07-06T01:51:17;5.18;;;1.40;;
51852;SDS011;37894;53.172;6.598;2022-07-06T01:53:43;3.92;;;1.38;;
51852;SDS011;37894;53.172;6.598;2022-07-06T01:56:09;7.90;;;1.50;;
51852;SDS011;37894;53.172;6.598;2022-07-06T01:58:35;4.18;;;1.20;;
51852;SDS011;37894;53.172;6.598;2022-07-06T02:01:04;5.18;;;1.70;;
51852;SDS011;37894;53.172;6.598;2022-07-06T02:03:35;4.78;;;1.20;;
51852;SDS011;37894;53.172;6.598;2022-07-06T02:06:02;6.63;;;1.30;;
51852;SDS011;37894;53.172;6.598;2022-07-06T02:08:28;4.25;;;1.27;;
51852;SDS011;37894;53.172;6.598;2022-07-06T02:10:54;4.97;;;1.30;;
51852;SDS011;37894;53.172;6.598;2022-07-06T02:13:19;4.43;;;1.90;;
51852;SDS011;37894;53.172;6.598;2022-07-06T02:15:45;6.13;;;1.65;;
51852;SDS011;37894;53.172;6.598;2022-07-06T02:18:11;6.25;;;1.40;;
51852;SDS011;37894;53.172;6.598;2022-07-06T02:20:37;3.80;;;1.17;;
51852;SDS011;37894;53.172;6.598;2022-07-06T02:23:02;4.60;;;1.67;;
51852;SDS011;37894;53.172;6.598;2022-07-06T02:25:28;8.88;;;1.45;;
51852;SDS011;37894;53.172;6.598;2022-07-06T02:27:54;6.22;;;1.35;;
51852;SDS011;37894;53.172;6.598;2022-07-06T02:30:19;2.33;;;1.20;;
51852;SDS011;37894;53.172;6.598;2022-07-06T02:32:45;6.13;;;1.30;;
51852;SDS011;37894;53.172;6.598;2022-07-06T02:35:11;2.92;;;0.90;;
51852;SDS011;37894;53.172;6.598;2022-07-06T02:37:37;3.00;;;1.30;;
51852;SDS011;37894;53.172;6.598;2022-07-06T02:40:03;5.45;;;1.30;;
51852;SDS011;37894;53.172;6.598;2022-07-06T02:42:29;4.13;;;1.25;;
51852;SDS011;37894;53.172;6.598;2022-07-06T02:44:55;5.03;;;1.20;;
51852;SDS011;37894;53.172;6.598;2022-07-06T02:47:21;6.40;;;1.48;;
51852;SDS011;37894;53.172;6.598;2022-07-06T02:49:47;5.38;;;1.40;;
51852;SDS011;37894;53.172;6.598;2022-07-06T02:52:12;3.67;;;1.30;;
51852;SDS011;37894;53.172;6.598;2022-07-06T02:54:38;8.00;;;1.50;;
51852;SDS011;37894;53.172;6.598;2022-07-06T02:57:04;2.75;;;1.23;;
51852;SDS011;37894;53.172;6.598;2022-07-06T02:59:29;4.43;;;1.40;;
51852;SDS011;37894;53.172;6.598;2022-07-06T03:01:55;4.10;;;1.30;;
51852;SDS011;37894;53.172;6.598;2022-07-06T03:04:21;4.32;;;1.42;;
51852;SDS011;37894;53.172;6.598;2022-07-06T03:06:47;4.22;;;1.40;;
51852;SDS011;37894;53.172;6.598;2022-07-06T03:09:13;5.28;;;1.63;;
51852;SDS011;37894;53.172;6.598;2022-07-06T03:11:38;2.83;;;1.40;;
51852;SDS011;37894;53.172;6.598;2022-07-06T03:14:04;5.72;;;1.75;;
51852;SDS011;37894;53.172;6.598;2022-07-06T03:16:30;6.78;;;1.67;;
51852;SDS011;37894;53.172;6.598;2022-07-06T03:18:56;6.75;;;1.70;;
51852;SDS011;37894;53.172;6.598;2022-07-06T03:21:25;5.53;;;1.52;;
51852;SDS011;37894;53.172;6.598;2022-07-06T03:23:51;6.50;;;1.60;;
51852;SDS011;37894;53.172;6.598;2022-07-06T03:26:17;5.15;;;1.52;;
51852;SDS011;37894;53.172;6.598;2022-07-06T03:28:43;4.97;;;1.45;;
51852;SDS011;37894;53.172;6.598;2022-07-06T03:31:08;3.90;;;1.40;;
51852;SDS011;37894;53.172;6.598;2022-07-06T03:33:34;4.32;;;1.48;;
51852;SDS011;37894;53.172;6.598;2022-07-06T03:35:59;5.55;;;1.30;;
51852;SDS011;37894;53.172;6.598;2022-07-06T03:38:25;4.90;;;1.63;;
51852;SDS011;37894;53.172;6.598;2022-07-06T03:40:51;5.15;;;1.50;;
51852;SDS011;37894;53.172;6.598;2022-07-06T03:43:17;4.45;;;1.63;;
51852;SDS011;37894;53.172;6.598;2022-07-06T03:45:42;3.45;;;1.58;;
51852;SDS011;37894;53.172;6.598;2022-07-06T03:48:08;3.13;;;1.63;;
51852;SDS011;37894;53.172;6.598;2022-07-06T03:50:34;5.07;;;1.50;;
51852;SDS011;37894;53.172;6.598;2022-07-06T03:53:00;5.18;;;1.50;;
51852;SDS011;37894;53.172;6.598;2022-07-06T03:55:26;5.90;;;1.50;;
51852;SDS011;37894;53.172;6.598;2022-07-06T03:57:52;5.55;;;1.45;;
51852;SDS011;37894;53.172;6.598;2022-07-06T04:00:18;3.65;;;1.40;;
51852;SDS011;37894;53.172;6.598;2022-07-06T04:02:44;2.97;;;1.35;;
51852;SDS011;37894;53.172;6.598;2022-07-06T04:05:09;3.65;;;1.52;;
51852;SDS011;37894;53.172;6.598;2022-07-06T04:07:35;4.57;;;1.52;;
51852;SDS011;37894;53.172;6.598;2022-07-06T04:10:01;6.43;;;1.60;;
51852;SDS011;37894;53.172;6.598;2022-07-06T04:12:26;3.13;;;1.20;;
51852;SDS011;37894;53.172;6.598;2022-07-06T04:14:52;4.05;;;1.70;;
51852;SDS011;37894;53.172;6.598;2022-07-06T04:17:20;6.05;;;1.67;;
51852;SDS011;37894;53.172;6.598;2022-07-06T04:20:05;7.50;;;1.50;;
51852;SDS011;37894;53.172;6.598;2022-07-06T04:22:31;6.00;;;1.52;;
51852;SDS011;37894;53.172;6.598;2022-07-06T04:24:57;4.60;;;1.65;;
51852;SDS011;37894;53.172;6.598;2022-07-06T04:27:23;4.15;;;1.42;;
51852;SDS011;37894;53.172;6.598;2022-07-06T04:29:48;17.85;;;3.08;;
51852;SDS011;37894;53.172;6.598;2022-07-06T04:32:14;8.80;;;2.00;;
51852;SDS011;37894;53.172;6.598;2022-07-06T04:34:40;6.18;;;1.30;;
51852;SDS011;37894;53.172;6.598;2022-07-06T04:37:05;6.07;;;1.50;;
51852;SDS011;37894;53.172;6.598;2022-07-06T04:39:31;5.72;;;1.48;;
51852;SDS011;37894;53.172;6.598;2022-07-06T04:41:57;3.58;;;1.27;;
51852;SDS011;37894;53.172;6.598;2022-07-06T04:44:22;5.32;;;1.23;;
51852;SDS011;37894;53.172;6.598;2022-07-06T04:46:48;6.53;;;1.20;;
51852;SDS011;37894;53.172;6.598;2022-07-06T04:49:14;5.40;;;1.20;;
51852;SDS011;37894;53.172;6.598;2022-07-06T04:51:39;3.85;;;1.30;;
51852;SDS011;37894;53.172;6.598;2022-07-06T04:54:05;5.65;;;1.45;;
51852;SDS011;37894;53.172;6.598;2022-07-06T04:56:31;9.15;;;1.30;;
51852;SDS011;37894;53.172;6.598;2022-07-06T04:58:57;4.80;;;1.20;;
51852;SDS011;37894;53.172;6.598;2022-07-06T05:01:22;5.90;;;1.10;;
51852;SDS011;37894;53.172;6.598;2022-07-06T05:03:48;3.20;;;1.10;;
51852;SDS011;37894;53.172;6.598;2022-07-06T05:06:13;11.32;;;1.73;;
51852;SDS011;37894;53.172;6.598;2022-07-06T05:08:40;5.70;;;1.40;;
51852;SDS011;37894;53.172;6.598;2022-07-06T05:11:05;5.53;;;1.25;;
51852;SDS011;37894;53.172;6.598;2022-07-06T05:13:31;2.55;;;1.10;;
51852;SDS011;37894;53.172;6.598;2022-07-06T05:15:57;4.05;;;1.40;;
51852;SDS011;37894;53.172;6.598;2022-07-06T05:18:22;3.85;;;0.90;;
51852;SDS011;37894;53.172;6.598;2022-07-06T05:20:48;4.70;;;1.10;;
51852;SDS011;37894;53.172;6.598;2022-07-06T05:23:13;5.57;;;1.10;;
51852;SDS011;37894;53.172;6.598;2022-07-06T05:25:39;5.28;;;1.42;;
51852;SDS011;37894;53.172;6.598;2022-07-06T05:28:05;3.60;;;1.10;;
51852;SDS011;37894;53.172;6.598;2022-07-06T05:30:30;5.63;;;1.20;;
51852;SDS011;37894;53.172;6.598;2022-07-06T05:32:56;5.07;;;1.50;;
51852;SDS011;37894;53.172;6.598;2022-07-06T05:35:21;3.58;;;1.10;;
51852;SDS011;37894;53.172;6.598;2022-07-06T05:37:47;3.53;;;1.20;;
51852;SDS011;37894;53.172;6.598;2022-07-06T05:40:13;4.35;;;0.98;;
51852;SDS011;37894;53.172;6.598;2022-07-06T05:42:38;8.32;;;1.40;;
51852;SDS011;37894;53.172;6.598;2022-07-06T05:45:04;3.72;;;1.20;;
51852;SDS011;37894;53.172;6.598;2022-07-06T05:47:31;5.15;;;1.15;;
51852;SDS011;37894;53.172;6.598;2022-07-06T05:50:15;7.22;;;1.45;;
51852;SDS011;37894;53.172;6.598;2022-07-06T05:52:43;4.10;;;0.88;;
51852;SDS011;37894;53.172;6.598;2022-07-06T05:55:11;3.15;;;0.90;;
51852;SDS011;37894;53.172;6.598;2022-07-06T05:57:37;2.75;;;0.85;;
51852;SDS011;37894;53.172;6.598;2022-07-06T06:00:07;3.38;;;0.80;;
51852;SDS011;37894;53.172;6.598;2022-07-06T06:02:39;2.85;;;1.02;;
51852;SDS011;37894;53.172;6.598;2022-07-06T06:05:09;3.10;;;0.63;;
51852;SDS011;37894;53.172;6.598;2022-07-06T06:07:36;3.35;;;0.88;;
51852;SDS011;37894;53.172;6.598;2022-07-06T06:10:07;2.53;;;0.77;;
51852;SDS011;37894;53.172;6.598;2022-07-06T06:12:34;5.00;;;0.77;;
51852;SDS011;37894;53.172;6.598;2022-07-06T06:14:59;3.83;;;0.85;;
51852;SDS011;37894;53.172;6.598;2022-07-06T06:17:25;4.45;;;1.00;;
51852;SDS011;37894;53.172;6.598;2022-07-06T06:19:51;7.20;;;0.98;;
51852;SDS011;37894;53.172;6.598;2022-07-06T06:22:17;4.45;;;1.08;;
51852;SDS011;37894;53.172;6.598;2022-07-06T06:24:42;3.75;;;0.93;;
51852;SDS011;37894;53.172;6.598;2022-07-06T06:27:08;9.60;;;1.10;;
51852;SDS011;37894;53.172;6.598;2022-07-06T06:29:34;3.70;;;1.00;;
51852;SDS011;37894;53.172;6.598;2022-07-06T06:31:59;2.08;;;0.90;;
51852;SDS011;37894;53.172;6.598;2022-07-06T06:34:25;5.28;;;1.00;;
51852;SDS011;37894;53.172;6.598;2022-07-06T06:36:51;5.80;;;1.65;;
51852;SDS011;37894;53.172;6.598;2022-07-06T06:39:16;3.25;;;0.98;;
51852;SDS011;37894;53.172;6.598;2022-07-06T06:41:42;5.57;;;1.30;;
51852;SDS011;37894;53.172;6.598;2022-07-06T06:44:07;2.42;;;0.90;;
51852;SDS011;37894;53.172;6.598;2022-07-06T06:46:33;8.30;;;1.40;;
51852;SDS011;37894;53.172;6.598;2022-07-06T06:48:59;4.45;;;0.90;;
51852;SDS011;37894;53.172;6.598;2022-07-06T06:51:24;4.97;;;1.38;;
51852;SDS011;37894;53.172;6.598;2022-07-06T06:53:50;9.68;;;1.10;;
51852;SDS011;37894;53.172;6.598;2022-07-06T06:56:16;5.15;;;1.17;;
51852;SDS011;37894;53.172;6.598;2022-07-06T06:58:42;11.50;;;1.38;;
51852;SDS011;37894;53.172;6.598;2022-07-06T07:01:08;3.53;;;1.20;;
51852;SDS011;37894;53.172;6.598;2022-07-06T07:03:34;5.70;;;1.10;;
51852;SDS011;37894;53.172;6.598;2022-07-06T07:05:59;5.65;;;1.45;;
51852;SDS011;37894;53.172;6.598;2022-07-06T07:08:25;3.67;;;1.05;;
51852;SDS011;37894;53.172;6.598;2022-07-06T07:10:51;7.40;;;1.05;;
51852;SDS011;37894;53.172;6.598;2022-07-06T07:13:16;3.75;;;1.00;;
51852;SDS011;37894;53.172;6.598;2022-07-06T07:15:42;10.73;;;1.40;;
51852;SDS011;37894;53.172;6.598;2022-07-06T07:18:08;6.88;;;1.20;;
51852;SDS011;37894;53.172;6.598;2022-07-06T07:20:34;5.13;;;1.17;;
51852;SDS011;37894;53.172;6.598;2022-07-06T07:22:59;2.25;;;1.02;;
51852;SDS011;37894;53.172;6.598;2022-07-06T07:25:26;3.75;;;1.35;;
51852;SDS011;37894;53.172;6.598;2022-07-06T07:27:52;10.25;;;1.40;;
51852;SDS011;37894;53.172;6.598;2022-07-06T07:30:19;3.80;;;1.50;;
51852;SDS011;37894;53.172;6.598;2022-07-06T07:32:44;2.75;;;1.00;;
51852;SDS011;37894;53.172;6.598;2022-07-06T07:35:11;6.35;;;1.52;;
51852;SDS011;37894;53.172;6.598;2022-07-06T07:37:37;7.53;;;1.10;;
51852;SDS011;37894;53.172;6.598;2022-07-06T07:40:03;3.60;;;1.02;;
51852;SDS011;37894;53.172;6.598;2022-07-06T07:42:30;3.45;;;1.00;;
51852;SDS011;37894;53.172;6.598;2022-07-06T07:44:56;2.95;;;0.90;;
51852;SDS011;37894;53.172;6.598;2022-07-06T07:47:21;7.72;;;1.20;;
51852;SDS011;37894;53.172;6.598;2022-07-06T07:49:47;3.25;;;0.77;;
51852;SDS011;37894;53.172;6.598;2022-07-06T07:52:13;7.40;;;1.10;;
51852;SDS011;37894;53.172;6.598;2022-07-06T07:54:38;5.53;;;1.30;;
51852;SDS011;37894;53.172;6.598;2022-07-06T07:57:04;2.78;;;0.93;;
51852;SDS011;37894;53.172;6.598;2022-07-06T07:59:30;5.15;;;0.90;;
51852;SDS011;37894;53.172;6.598;2022-07-06T08:01:56;6.05;;;1.08;;
51852;SDS011;37894;53.172;6.598;2022-07-06T08:04:21;4.45;;;0.68;;
51852;SDS011;37894;53.172;6.598;2022-07-06T08:06:47;3.45;;;0.70;;
51852;SDS011;37894;53.172;6.598;2022-07-06T08:09:13;2.33;;;0.70;;
51852;SDS011;37894;53.172;6.598;2022-07-06T08:11:40;3.10;;;0.88;;
51852;SDS011;37894;53.172;6.598;2022-07-06T08:14:06;2.05;;;0.70;;
51852;SDS011;37894;53.172;6.598;2022-07-06T08:16:32;2.65;;;0.80;;
51852;SDS011;37894;53.172;6.598;2022-07-06T08:18:57;3.10;;;0.73;;
51852;SDS011;37894;53.172;6.598;2022-07-06T08:21:23;3.47;;;0.75;;
51852;SDS011;37894;53.172;6.598;2022-07-06T08:23:49;4.30;;;0.90;;
51852;SDS011;37894;53.172;6.598;2022-07-06T08:26:15;4.20;;;0.80;;
51852;SDS011;37894;53.172;6.598;2022-07-06T08:28:41;6.10;;;0.90;;
51852;SDS011;37894;53.172;6.598;2022-07-06T08:31:06;3.05;;;1.00;;
51852;SDS011;37894;53.172;6.598;2022-07-06T08:33:32;3.28;;;0.65;;
51852;SDS011;37894;53.172;6.598;2022-07-06T08:35:58;6.88;;;1.10;;
51852;SDS011;37894;53.172;6.598;2022-07-06T08:38:24;2.78;;;0.70;;
51852;SDS011;37894;53.172;6.598;2022-07-06T08:40:50;5.47;;;0.80;;
51852;SDS011;37894;53.172;6.598;2022-07-06T08:43:16;2.38;;;0.70;;
51852;SDS011;37894;53.172;6.598;2022-07-06T08:45:42;3.40;;;0.77;;
51852;SDS011;37894;53.172;6.598;2022-07-06T08:48:09;5.88;;;0.90;;
51852;SDS011;37894;53.172;6.598;2022-07-06T08:50:36;3.72;;;0.60;;
51852;SDS011;37894;53.172;6.598;2022-07-06T08:53:02;2.83;;;0.70;;
51852;SDS011;37894;53.172;6.598;2022-07-06T08:55:30;3.42;;;0.80;;
51852;SDS011;37894;53.172;6.598;2022-07-06T08:57:56;3.75;;;0.75;;
51852;SDS011;37894;53.172;6.598;2022-07-06T09:00:23;1.30;;;0.60;;
51852;SDS011;37894;53.172;6.598;2022-07-06T09:02:52;3.45;;;0.70;;
51852;SDS011;37894;53.172;6.598;2022-07-06T09:05:22;5.28;;;0.80;;
51852;SDS011;37894;53.172;6.598;2022-07-06T09:07:49;1.92;;;0.60;;
51852;SDS011;37894;53.172;6.598;2022-07-06T09:10:19;4.18;;;0.80;;
51852;SDS011;37894;53.172;6.598;2022-07-06T09:12:50;3.78;;;0.77;;
51852;SDS011;37894;53.172;6.598;2022-07-06T09:15:15;4.80;;;0.80;;
51852;SDS011;37894;53.172;6.598;2022-07-06T09:17:42;5.05;;;1.00;;
51852;SDS011;37894;53.172;6.598;2022-07-06T09:20:09;4.75;;;0.80;;
51852;SDS011;37894;53.172;6.598;2022-07-06T09:22:36;2.47;;;0.90;;
51852;SDS011;37894;53.172;6.598;2022-07-06T09:25:06;3.70;;;0.82;;
51852;SDS011;37894;53.172;6.598;2022-07-06T09:27:40;2.97;;;0.68;;
51852;SDS011;37894;53.172;6.598;2022-07-06T09:30:08;4.05;;;0.90;;
51852;SDS011;37894;53.172;6.598;2022-07-06T09:32:42;3.47;;;0.90;;
51852;SDS011;37894;53.172;6.598;2022-07-06T09:35:24;3.22;;;1.05;;
51852;SDS011;37894;53.172;6.598;2022-07-06T09:38:07;5.77;;;1.77;;
51852;SDS011;37894;53.172;6.598;2022-07-06T09:40:40;3.35;;;0.90;;
51852;SDS011;37894;53.172;6.598;2022-07-06T09:48:14;4.35;;;0.80;;
51852;SDS011;37894;53.172;6.598;2022-07-06T09:50:44;4.13;;;0.88;;
51852;SDS011;37894;53.172;6.598;2022-07-06T09:53:11;8.10;;;1.00;;
51852;SDS011;37894;53.172;6.598;2022-07-06T09:55:38;3.75;;;0.90;;
51852;SDS011;37894;53.172;6.598;2022-07-06T09:58:07;4.78;;;0.80;;
51852;SDS011;37894;53.172;6.598;2022-07-06T10:00:33;3.75;;;0.70;;
51852;SDS011;37894;53.172;6.598;2022-07-06T10:03:00;2.38;;;0.77;;
51852;SDS011;37894;53.172;6.598;2022-07-06T10:05:26;3.30;;;0.90;;
51852;SDS011;37894;53.172;6.598;2022-07-06T10:07:55;3.17;;;0.93;;
51852;SDS011;37894;53.172;6.598;2022-07-06T10:10:29;2.63;;;0.85;;
51852;SDS011;37894;53.172;6.598;2022-07-06T10:15:22;3.20;;;0.80;;
51852;SDS011;37894;53.172;6.598;2022-07-06T10:17:52;3.33;;;0.75;;
51852;SDS011;37894;53.172;6.598;2022-07-06T10:20:19;4.63;;;1.02;;
51852;SDS011;37894;53.172;6.598;2022-07-06T10:22:48;6.40;;;0.90;;
51852;SDS011;37894;53.172;6.598;2022-07-06T10:25:16;4.15;;;0.80;;
51852;SDS011;37894;53.172;6.598;2022-07-06T10:27:42;1.70;;;0.70;;
51852;SDS011;37894;53.172;6.598;2022-07-06T10:30:09;1.92;;;0.63;;
51852;SDS011;37894;53.172;6.598;2022-07-06T10:32:36;3.20;;;0.98;;
51852;SDS011;37894;53.172;6.598;2022-07-06T10:35:04;3.13;;;1.00;;
51852;SDS011;37894;53.172;6.598;2022-07-06T10:37:30;3.15;;;0.70;;
51852;SDS011;37894;53.172;6.598;2022-07-06T10:39:58;2.38;;;0.80;;
51852;SDS011;37894;53.172;6.598;2022-07-06T10:42:44;4.45;;;0.80;;
51852;SDS011;37894;53.172;6.598;2022-07-06T10:45:14;4.00;;;0.77;;
51852;SDS011;37894;53.172;6.598;2022-07-06T10:48:09;2.85;;;1.00;;
51852;SDS011;37894;53.172;6.598;2022-07-06T10:53:12;4.57;;;0.70;;
51852;SDS011;37894;53.172;6.598;2022-07-06T10:55:43;1.98;;;0.55;;
51852;SDS011;37894;53.172;6.598;2022-07-06T10:58:15;2.33;;;0.93;;
51852;SDS011;37894;53.172;6.598;2022-07-06T11:00:59;3.10;;;0.85;;
51852;SDS011;37894;53.172;6.598;2022-07-06T11:03:32;2.78;;;0.68;;
51852;SDS011;37894;53.172;6.598;2022-07-06T11:06:00;5.63;;;0.98;;
51852;SDS011;37894;53.172;6.598;2022-07-06T11:08:54;2.80;;;0.82;;
51852;SDS011;37894;53.172;6.598;2022-07-06T11:16:23;3.00;;;1.17;;
51852;SDS011;37894;53.172;6.598;2022-07-06T11:19:02;4.53;;;0.77;;
51852;SDS011;37894;53.172;6.598;2022-07-06T11:21:39;2.47;;;0.80;;
51852;SDS011;37894;53.172;6.598;2022-07-06T11:24:06;3.13;;;0.85;;
51852;SDS011;37894;53.172;6.598;2022-07-06T11:26:34;2.40;;;0.77;;
51852;SDS011;37894;53.172;6.598;2022-07-06T11:29:02;2.63;;;0.82;;
51852;SDS011;37894;53.172;6.598;2022-07-06T11:31:30;2.35;;;0.80;;
51852;SDS011;37894;53.172;6.598;2022-07-06T11:33:57;2.78;;;0.98;;
51852;SDS011;37894;53.172;6.598;2022-07-06T11:36:23;3.80;;;0.80;;
51852;SDS011;37894;53.172;6.598;2022-07-06T11:38:49;3.47;;;0.90;;
51852;SDS011;37894;53.172;6.598;2022-07-06T11:41:15;2.00;;;0.75;;
51852;SDS011;37894;53.172;6.598;2022-07-06T11:43:46;2.80;;;0.80;;
51852;SDS011;37894;53.172;6.598;2022-07-06T11:48:58;4.15;;;0.90;;
51852;SDS011;37894;53.172;6.598;2022-07-06T11:51:26;2.20;;;0.70;;
51852;SDS011;37894;53.172;6.598;2022-07-06T11:53:54;3.20;;;0.80;;
51852;SDS011;37894;53.172;6.598;2022-07-06T11:56:23;1.67;;;0.65;;
51852;SDS011;37894;53.172;6.598;2022-07-06T11:58:58;4.50;;;0.90;;
51852;SDS011;37894;53.172;6.598;2022-07-06T12:01:25;2.75;;;0.73;;
51852;SDS011;37894;53.172;6.598;2022-07-06T12:03:53;2.90;;;0.70;;
51852;SDS011;37894;53.172;6.598;2022-07-06T12:06:23;4.13;;;0.82;;
51852;SDS011;37894;53.172;6.598;2022-07-06T12:08:50;4.43;;;0.90;;
51852;SDS011;37894;53.172;6.598;2022-07-06T12:11:27;3.05;;;0.70;;
51852;SDS011;37894;53.172;6.598;2022-07-06T12:14:16;2.40;;;0.60;;
51852;SDS011;37894;53.172;6.598;2022-07-06T12:16:41;4.00;;;0.93;;
51852;SDS011;37894;53.172;6.598;2022-07-06T12:19:07;1.85;;;0.60;;
51852;SDS011;37894;53.172;6.598;2022-07-06T12:21:34;3.88;;;1.02;;
51852;SDS011;37894;53.172;6.598;2022-07-06T12:24:00;3.28;;;0.85;;
51852;SDS011;37894;53.172;6.598;2022-07-06T12:26:26;2.15;;;0.98;;
51852;SDS011;37894;53.172;6.598;2022-07-06T12:28:59;3.03;;;0.73;;
51852;SDS011;37894;53.172;6.598;2022-07-06T12:31:32;3.03;;;0.80;;
51852;SDS011;37894;53.172;6.598;2022-07-06T12:33:59;4.32;;;0.90;;
51852;SDS011;37894;53.172;6.598;2022-07-06T12:36:25;3.53;;;1.02;;
51852;SDS011;37894;53.172;6.598;2022-07-06T12:38:51;2.92;;;1.08;;
51852;SDS011;37894;53.172;6.598;2022-07-06T12:44:07;4.57;;;1.00;;
51852;SDS011;37894;53.172;6.598;2022-07-06T12:46:35;3.35;;;0.75;;
51852;SDS011;37894;53.172;6.598;2022-07-06T12:51:48;3.58;;;0.80;;
51852;SDS011;37894;53.172;6.598;2022-07-06T12:54:15;4.22;;;0.93;;
51852;SDS011;37894;53.172;6.598;2022-07-06T12:59:23;4.30;;;0.73;;
51852;SDS011;37894;53.172;6.598;2022-07-06T13:01:49;5.30;;;1.00;;
51852;SDS011;37894;53.172;6.598;2022-07-06T13:04:21;2.15;;;0.90;;
51852;SDS011;37894;53.172;6.598;2022-07-06T13:06:48;3.53;;;1.00;;
51852;SDS011;37894;53.172;6.598;2022-07-06T13:09:13;3.10;;;1.05;;
51852;SDS011;37894;53.172;6.598;2022-07-06T13:11:41;4.65;;;0.93;;
51852;SDS011;37894;53.172;6.598;2022-07-06T13:14:07;3.83;;;0.88;;
51852;SDS011;37894;53.172;6.598;2022-07-06T13:16:34;3.58;;;0.80;;
51852;SDS011;37894;53.172;6.598;2022-07-06T13:19:00;3.45;;;0.88;;
51852;SDS011;37894;53.172;6.598;2022-07-06T13:21:27;2.08;;;0.80;;
51852;SDS011;37894;53.172;6.598;2022-07-06T13:23:52;2.85;;;0.65;;
51852;SDS011;37894;53.172;6.598;2022-07-06T13:26:18;3.10;;;0.70;;
51852;SDS011;37894;53.172;6.598;2022-07-06T13:28:44;3.80;;;1.00;;
51852;SDS011;37894;53.172;6.598;2022-07-06T13:31:11;1.90;;;0.70;;
51852;SDS011;37894;53.172;6.598;2022-07-06T13:33:36;2.55;;;0.80;;
51852;SDS011;37894;53.172;6.598;2022-07-06T13:36:02;1.58;;;0.77;;
51852;SDS011;37894;53.172;6.598;2022-07-06T13:38:28;2.17;;;0.73;;
51852;SDS011;37894;53.172;6.598;2022-07-06T13:40:54;2.80;;;0.82;;
51852;SDS011;37894;53.172;6.598;2022-07-06T13:43:20;2.58;;;0.85;;
51852;SDS011;37894;53.172;6.598;2022-07-06T13:45:46;1.52;;;0.70;;
51852;SDS011;37894;53.172;6.598;2022-07-06T13:48:12;4.47;;;1.00;;
51852;SDS011;37894;53.172;6.598;2022-07-06T13:50:38;2.55;;;0.82;;
51852;SDS011;37894;53.172;6.598;2022-07-06T13:53:04;1.65;;;0.68;;
51852;SDS011;37894;53.172;6.598;2022-07-06T13:55:30;4.57;;;1.15;;
51852;SDS011;37894;53.172;6.598;2022-07-06T13:57:56;2.53;;;1.00;;
51852;SDS011;37894;53.172;6.598;2022-07-06T14:00:22;2.92;;;1.25;;
51852;SDS011;37894;53.172;6.598;2022-07-06T14:02:47;3.65;;;0.95;;
51852;SDS011;37894;53.172;6.598;2022-07-06T14:05:13;3.67;;;0.80;;
51852;SDS011;37894;53.172;6.598;2022-07-06T14:07:39;2.63;;;0.80;;
51852;SDS011;37894;53.172;6.598;2022-07-06T14:10:05;4.78;;;1.15;;
51852;SDS011;37894;53.172;6.598;2022-07-06T14:12:32;3.05;;;0.95;;
51852;SDS011;37894;53.172;6.598;2022-07-06T14:14:57;2.75;;;1.05;;
51852;SDS011;37894;53.172;6.598;2022-07-06T14:17:23;3.05;;;1.30;;
51852;SDS011;37894;53.172;6.598;2022-07-06T14:19:50;3.63;;;1.13;;
51852;SDS011;37894;53.172;6.598;2022-07-06T14:22:16;4.00;;;0.98;;
51852;SDS011;37894;53.172;6.598;2022-07-06T14:24:42;3.28;;;1.10;;
51852;SDS011;37894;53.172;6.598;2022-07-06T14:27:08;4.72;;;1.20;;
51852;SDS011;37894;53.172;6.598;2022-07-06T14:29:33;1.90;;;0.98;;
51852;SDS011;37894;53.172;6.598;2022-07-06T14:31:59;5.60;;;1.20;;
51852;SDS011;37894;53.172;6.598;2022-07-06T14:34:25;3.05;;;0.90;;
51852;SDS011;37894;53.172;6.598;2022-07-06T14:36:51;7.07;;;1.35;;
51852;SDS011;37894;53.172;6.598;2022-07-06T14:39:17;2.97;;;0.80;;
51852;SDS011;37894;53.172;6.598;2022-07-06T14:41:42;3.65;;;0.90;;
51852;SDS011;37894;53.172;6.598;2022-07-06T14:44:08;2.80;;;1.02;;
51852;SDS011;37894;53.172;6.598;2022-07-06T14:46:34;4.65;;;1.10;;
51852;SDS011;37894;53.172;6.598;2022-07-06T14:49:00;3.55;;;1.10;;
51852;SDS011;37894;53.172;6.598;2022-07-06T14:51:26;3.65;;;1.10;;
51852;SDS011;37894;53.172;6.598;2022-07-06T14:53:52;3.40;;;1.40;;
51852;SDS011;37894;53.172;6.598;2022-07-06T14:56:18;1.85;;;0.80;;
51852;SDS011;37894;53.172;6.598;2022-07-06T14:58:44;3.72;;;1.05;;
51852;SDS011;37894;53.172;6.598;2022-07-06T15:01:10;4.65;;;1.20;;
51852;SDS011;37894;53.172;6.598;2022-07-06T15:03:36;2.38;;;0.90;;
51852;SDS011;37894;53.172;6.598;2022-07-06T15:06:02;6.15;;;1.27;;
51852;SDS011;37894;53.172;6.598;2022-07-06T15:08:28;4.40;;;1.38;;
51852;SDS011;37894;53.172;6.598;2022-07-06T15:10:53;3.50;;;1.23;;
51852;SDS011;37894;53.172;6.598;2022-07-06T15:13:19;4.63;;;1.70;;